Date,TemperatureHighF,TemperatureAvgF,TemperatureLowF,DewpointHighF,DewpointAvgF,DewpointLowF,HumidityHigh,HumidityAvg,HumidityLow,PressureMaxIn,PressureMinIn,WindSpeedMaxMPH,WindSpeedAvgMPH,GustSpeedMaxMPH,PrecipitationSumIn
2013-1-1,64,52,41,54,48,39,96,85,67,30.17,29.91,3,1,7,0.04
2013-1-2,62,55,52,55,52,49,97,90,68,30.12,29.89,3,0,5,0.05
2013-1-3,52,48,42,49,44,40,95,86,71,30.27,30.07,2,0,6,0.01
2013-1-4,56,41,31,41,36,30,97,82,48,30.36,30.25,4,1,7,0.00
2013-1-5,55,40,25,41,31,24,95,73,35,30.41,30.26,3,0,8,0.00
2013-1-6,54,47,40,46,42,37,95,82,71,30.27,30.10,2,1,7,0.03
2013-1-7,57,41,30,39,33,29,96,78,40,30.40,30.22,6,1,14,0.00
2013-1-8,56,43,30,46,38,28,95,85,67,30.42,30.31,3,1,7,0.00
2013-1-9,71,53,38,57,48,37,96,83,60,30.44,30.33,3,0,6,0.00
2013-1-10,76,59,44,60,53,43,97,81,49,30.43,30.28,6,1,10,0.02
2013-1-11,76,66,61,66,62,59,97,88,70,30.28,30.11,3,1,8,0.00
2013-1-12,80,64,53,64,58,52,97,82,52,30.17,30.07,4,0,9,0.00
2013-1-13,77,63,54,65,59,52,97,86,63,30.14,30.03,4,1,8,0.00
2013-1-14,79,70,60,65,61,58,91,75,57,30.10,30.04,4,1,7,0.00
2013-1-15,77,66,56,63,60,54,97,80,57,30.11,29.97,4,1,9,0.00
2013-1-16,75,67,62,66,62,58,96,84,69,29.99,29.90,4,1,9,0.09
2013-1-17,69,57,43,66,54,39,98,91,78,30.19,29.72,6,2,22,0.33
2013-1-18,56,42,31,40,34,26,96,76,33,30.50,30.18,6,1,10,0.00
2013-1-19,61,42,26,42,33,25,95,76,39,30.49,30.22,3,0,5,0.00
2013-1-20,67,46,32,42,37,30,96,75,35,30.22,30.06,4,1,8,0.00
2013-1-21,64,47,30,44,33,25,96,64,27,30.11,30.00,4,1,8,0.00
2013-1-22,52,42,34,30,22,18,73,46,27,30.29,30.09,4,2,10,0.00
2013-1-23,55,39,26,36,28,20,88,66,36,30.38,30.16,5,1,10,0.00
2013-1-24,65,51,38,44,33,14,90,54,17,30.43,30.09,7,2,14,0.00
2013-1-25,40,35,30,28,19,11,66,51,36,30.47,30.15,4,2,9,0.00
2013-1-26,60,44,34,40,34,28,93,70,44,30.30,30.11,3,1,6,0.00
2013-1-27,56,43,30,32,30,28,95,66,38,30.52,30.30,6,2,10,0.00
2013-1-28,62,48,41,48,39,30,93,73,55,30.45,30.28,3,1,6,0.00
2013-1-29,78,55,40,62,49,38,96,83,56,30.29,30.05,3,1,7,0.00
2013-1-30,76,63,52,66,57,47,91,81,66,29.72,29.50,6,4,17,0.67
2013-1-31,54,45,35,48,31,23,87,61,30,30.18,29.71,6,3,14,0.11
2013-2-1,51,42,29,33,23,7,85,51,17,30.36,30.10,6,2,13,0.00
2013-2-2,58,39,22,40,23,12,88,59,19,30.38,30.10,3,1,9,0.00
2013-2-3,62,47,35,40,34,27,93,67,31,30.10,29.92,6,2,10,0.00
2013-2-4,52,40,29,36,31,27,92,73,41,30.15,30.03,3,0,5,0.00
2013-2-5,67,48,31,49,41,29,95,77,52,30.04,29.95,4,1,9,0.00
2013-2-6,72,52,37,50,41,34,96,73,26,30.16,30.01,4,1,8,0.00
2013-2-7,49,44,37,47,43,35,95,93,87,30.16,29.86,9,2,15,1.56
2013-2-8,61,51,42,51,46,40,94,85,67,30.11,29.88,4,1,7,0.00
2013-2-9,64,44,30,41,35,29,96,75,32,30.31,30.10,4,1,8,0.01
2013-2-10,68,52,34,56,43,32,95,76,51,30.39,30.10,5,2,11,0.21
2013-2-11,67,59,55,63,57,54,97,94,85,30.19,30.03,4,1,11,1.03
2013-2-12,64,55,48,54,49,41,97,84,47,30.11,29.84,4,1,8,0.59
2013-2-13,58,52,48,55,50,47,97,93,77,29.88,29.72,5,2,8,0.06
2013-2-14,53,46,36,44,39,34,95,79,61,30.08,29.99,3,0,4,0.00
2013-2-15,65,43,30,45,35,29,97,79,33,30.12,29.97,3,1,5,0.01
2013-2-16,48,40,33,21,19,16,54,43,32,30.09,29.86,5,3,10,0.11
2013-2-17,49,36,28,27,18,11,84,50,23,30.30,30.09,5,2,19,0.00
2013-2-18,60,40,24,33,26,21,92,61,27,30.40,30.22,4,1,7,0.00
2013-2-19,56,44,37,50,40,29,96,85,61,30.23,29.97,3,0,7,0.21
2013-2-20,61,44,28,39,29,19,92,61,20,30.17,30.05,3,1,6,0.01
2013-2-21,66,48,30,42,32,23,91,60,22,30.19,30.02,3,1,8,0.00
2013-2-22,55,45,41,43,40,37,95,86,54,30.17,30.09,5,2,9,0.69
2013-2-23,47,44,40,45,42,39,97,96,94,30.09,29.83,3,1,8,0.95
2013-2-24,71,53,41,50,44,34,97,77,29,30.00,29.89,3,1,7,0.00
2013-2-25,50,45,40,42,37,32,95,75,51,30.07,29.89,7,3,13,0.01
2013-2-26,53,46,40,50,44,38,96,94,91,29.95,29.58,5,2,10,0.93
2013-2-27,63,50,39,45,41,37,95,74,43,29.83,29.76,5,1,10,0.00
2013-2-28,58,47,39,41,35,28,90,66,43,29.94,29.80,5,2,12,0.00
2013-3-1,56,42,29,34,30,26,93,66,41,29.99,29.86,4,1,9,0.00
2013-3-2,48,38,31,41,32,27,93,80,58,29.97,29.88,4,1,9,0.01
2013-3-3,50,38,28,28,25,22,93,62,36,30.05,29.92,4,1,9,0.00
2013-3-4,62,42,24,38,27,20,89,62,21,30.20,30.04,4,1,7,0.00
2013-3-5,70,52,36,58,44,33,92,77,54,30.09,29.66,6,2,15,0.15
2013-3-6,51,43,35,35,28,22,83,57,42,30.14,29.80,6,3,13,0.00
2013-3-7,62,42,26,39,32,24,94,70,34,30.26,30.12,4,1,10,0.00
2013-3-8,62,44,30,38,32,26,96,67,27,30.31,30.17,4,1,8,0.00
2013-3-9,67,47,29,41,33,28,95,66,25,30.35,30.21,4,1,9,0.00
2013-3-10,72,55,38,50,43,36,93,67,34,30.28,30.11,5,1,11,0.02
2013-3-11,72,60,45,57,50,42,91,73,52,30.15,29.80,4,2,12,0.01
2013-3-12,70,59,50,59,49,37,95,72,36,30.01,29.75,4,2,9,0.30
2013-3-13,63,54,41,40,30,22,89,44,22,30.18,30.01,6,2,13,0.00
2013-3-14,58,44,29,35,26,21,87,54,26,30.33,30.17,5,1,9,0.00
2013-3-15,74,52,31,45,36,27,90,60,29,30.24,29.98,5,1,10,0.00
2013-3-16,80,64,49,47,44,40,82,52,25,30.01,29.84,5,2,18,0.00
2013-3-17,76,63,52,56,51,46,90,66,43,30.01,29.90,5,1,9,0.00
2013-3-18,69,58,49,60,54,46,95,85,71,30.04,29.80,8,1,29,0.42
2013-3-19,74,57,46,53,43,20,96,68,16,30.03,29.84,4,1,9,0.03
2013-3-20,62,50,37,42,32,22,94,58,24,30.12,29.86,4,1,10,0.00
2013-3-21,56,45,37,33,23,8,75,45,18,29.96,29.83,5,2,11,0.00
2013-3-22,53,41,32,29,25,20,81,56,36,30.09,29.96,5,1,7,0.00
2013-3-23,50,50,50,48,48,47,92,91,91,29.92,29.85,3,2,6,0.31
2013-3-24,50,49,46,49,47,45,95,93,90,29.87,29.55,5,2,10,1.35
2013-3-25,52,46,39,46,33,25,96,63,36,30.01,29.62,6,3,14,0.00
2013-3-26,49,44,38,29,27,25,61,51,43,30.16,30.01,4,2,7,0.00
2013-3-27,59,50,37,36,30,24,86,51,27,30.31,30.18,4,1,10,0.00
2013-3-28,63,53,31,39,30,24,90,45,23,30.33,30.18,4,2,9,0.00
2013-3-29,69,60,40,46,35,23,85,43,22,30.34,30.18,4,1,7,0.00
2013-3-30,75,60,49,51,44,41,85,61,33,30.21,30.02,4,1,8,0.00
2013-3-31,72,67,61,62,58,52,91,73,56,30.03,29.85,5,2,13,0.05
2013-4-1,77,69,57,60,52,39,92,59,27,29.93,29.85,4,2,11,0.34
2013-4-2,74,65,43,51,43,35,96,50,28,30.13,29.98,4,2,9,0.00
2013-4-3,52,49,45,47,46,42,91,87,78,30.20,30.09,2,0,6,0.00
2013-4-4,45,44,42,43,42,40,93,93,92,30.02,29.95,4,3,8,0.68
2013-4-5,61,53,40,49,46,38,94,77,60,30.04,29.95,5,2,11,0.00
2013-4-6,75,57,38,50,42,34,96,64,24,30.18,30.04,4,1,8,0.00
2013-4-7,78,60,42,57,50,40,95,71,42,30.23,30.06,4,1,9,0.00
2013-4-8,83,74,59,58,56,53,88,56,38,30.16,30.04,4,1,7,0.00
2013-4-9,82,70,55,63,61,53,96,74,45,30.19,30.08,3,0,6,0.00
2013-4-10,86,77,56,63,61,54,96,59,40,30.12,29.96,4,2,8,0.00
2013-4-11,82,77,71,70,68,66,91,74,61,29.94,29.73,4,2,9,0.01
2013-4-12,80,70,55,68,56,45,90,62,32,29.87,29.71,5,2,11,0.06
2013-4-13,80,68,53,54,47,37,85,51,23,30.00,29.87,4,1,8,0.00
2013-4-14,70,64,59,62,58,54,94,81,58,30.07,29.80,8,1,13,0.23
2013-4-15,75,65,59,65,61,58,96,88,65,30.14,29.92,2,0,6,0.00
2013-4-16,83,68,56,66,60,55,97,80,48,30.24,30.14,4,1,7,0.00
2013-4-17,85,70,56,68,62,55,96,77,45,30.22,30.07,3,1,8,0.00
2013-4-18,82,71,58,68,63,56,96,78,56,30.11,29.94,3,1,7,0.00
2013-4-19,82,68,51,71,64,49,94,88,64,29.97,29.80,4,1,9,0.52
2013-4-20,59,48,43,49,44,37,95,86,46,30.17,29.95,5,1,11,0.01
2013-4-21,71,66,54,48,43,39,76,46,33,30.34,30.24,7,4,13,0.00
2013-4-22,71,63,47,46,42,38,86,50,35,30.27,30.15,6,2,11,0.00
2013-4-23,76,57,40,56,47,38,95,74,39,30.22,30.07,4,1,9,0.00
2013-4-24,81,66,54,63,57,52,94,75,47,30.15,30.01,3,1,7,0.00
2013-4-25,80,69,51,61,55,47,91,62,34,30.23,30.12,4,1,9,0.00
2013-4-26,78,69,49,58,53,47,92,59,37,30.36,30.23,4,1,11,0.00
2013-4-27,70,64,55,60,57,52,94,78,64,30.32,30.20,5,2,9,0.03
2013-4-28,74,66,61,67,63,59,95,89,76,30.14,29.97,3,1,6,1.54
2013-4-29,71,63,59,67,62,57,97,94,82,30.05,29.93,3,0,6,0.12
2013-4-30,80,65,54,68,60,53,97,85,58,30.09,29.94,5,1,10,0.01
2013-5-1,70,65,60,60,58,56,95,80,66,30.20,30.09,5,2,10,0.00
2013-5-2,70,65,61,62,60,58,91,83,72,30.18,30.10,7,3,14,0.00
2013-5-3,67,64,60,61,58,55,92,82,76,30.09,29.99,7,4,11,0.01
2013-5-4,63,59,54,58,54,49,93,84,67,30.00,29.84,7,4,14,0.35
2013-5-5,73,64,56,65,60,54,95,87,67,29.80,29.75,4,1,6,0.66
2013-5-6,68,61,53,53,51,49,92,71,52,29.92,29.86,3,1,7,0.00
2013-5-7,72,60,51,57,52,49,96,78,52,29.97,29.85,3,1,8,0.00
2013-5-8,79,68,50,61,57,49,96,68,44,30.02,29.95,4,1,8,0.00
2013-5-9,84,68,54,67,59,52,96,76,44,30.08,29.99,3,0,7,0.00
2013-5-10,86,70,56,69,62,55,96,77,45,30.07,29.92,3,0,6,0.00
2013-5-13,73,66,56,46,42,36,63,42,28,30.11,30.05,3,1,7,0.00
2013-5-14,78,72,62,57,47,37,72,42,28,30.26,30.11,3,1,7,0.00
2013-5-15,89,81,59,65,62,55,87,52,40,30.14,29.96,3,2,8,0.00
2013-5-16,83,75,64,69,65,61,90,72,52,30.06,29.97,3,0,6,0.00
2013-5-17,87,77,66,72,66,62,90,69,45,30.08,30.01,2,0,7,0.00
2013-5-18,80,75,70,70,68,64,90,79,61,30.10,30.01,2,0,4,0.02
2013-5-19,78,74,70,72,70,68,94,86,75,30.10,30.00,2,0,6,0.01
2013-5-20,84,76,68,73,70,67,97,82,66,30.09,29.98,2,0,4,0.00
2013-5-21,88,78,69,76,69,64,97,75,54,30.03,29.91,5,1,10,0.00
2013-5-22,86,78,65,74,70,64,96,77,63,29.99,29.85,2,1,7,0.00
2013-5-23,85,74,66,73,67,62,96,82,49,29.94,29.84,4,1,8,0.07
2013-5-24,83,74,57,62,54,41,78,51,26,30.16,29.97,4,2,14,0.00
2013-5-25,80,64,46,56,48,42,95,62,30,30.31,30.15,4,1,7,0.00
2013-5-26,83,77,62,63,56,53,83,51,37,30.20,30.13,4,1,8,0.00
2013-5-27,89,81,68,67,63,58,81,56,38,30.22,30.09,2,1,5,0.00
2013-5-28,88,81,67,69,65,62,89,60,47,30.20,30.10,3,1,9,0.00
2013-5-29,89,77,59,68,64,58,96,66,40,30.22,30.10,4,1,7,0.00
2013-5-30,90,82,65,71,67,63,95,63,42,30.24,30.08,3,1,7,0.00
2013-5-31,89,82,74,72,69,67,78,66,51,30.10,30.05,2,1,5,0.00
2013-6-1,90,77,65,73,68,64,95,75,45,30.12,29.98,3,1,6,0.00
2013-6-2,89,77,69,75,71,66,95,83,54,30.05,29.84,3,1,7,0.75
2013-6-3,86,75,71,76,72,70,97,91,65,29.92,29.83,2,0,5,0.49
2013-6-4,88,76,69,77,71,67,97,87,59,30.00,29.90,4,1,8,0.06
2013-6-5,85,73,68,76,71,67,96,92,73,30.01,29.95,4,1,7,0.15
2013-6-6,76,72,70,74,71,69,96,94,90,29.89,29.70,3,0,5,0.18
2013-6-7,86,77,69,77,72,68,96,86,67,29.84,29.69,3,1,11,0.28
2013-6-8,85,74,68,75,70,66,96,87,62,30.06,29.82,2,0,5,0.00
2013-6-9,86,74,68,78,71,67,96,91,65,30.10,30.01,3,0,9,0.66
2013-6-10,81,73,70,77,72,69,96,95,85,30.05,29.93,3,0,7,0.71
2013-6-11,86,75,70,79,72,68,97,93,71,30.02,29.90,3,0,7,0.00
2013-6-12,94,85,72,80,76,70,97,77,52,29.99,29.90,2,1,6,0.00
2013-6-13,93,82,73,80,75,72,96,80,52,29.91,29.69,4,1,12,0.00
2013-6-14,83,74,66,73,67,60,95,79,48,29.98,29.75,5,1,9,0.00
2013-6-15,88,73,60,70,64,57,96,77,39,30.10,29.98,3,0,6,0.00
2013-6-16,88,75,64,73,68,62,96,80,51,30.14,30.00,2,0,6,0.00
2013-6-17,90,76,71,76,71,66,96,86,60,30.06,29.91,3,0,5,0.33
2013-6-18,85,76,69,79,73,68,96,90,75,29.97,29.81,3,0,8,0.02
2013-6-19,84,76,70,75,72,68,96,87,74,30.04,29.87,4,1,9,0.00
2013-6-20,87,75,65,70,66,63,96,76,47,30.15,30.04,6,2,11,0.00
2013-6-21,85,74,63,69,64,62,96,74,48,30.20,30.11,5,1,11,0.00
2013-6-22,88,75,63,73,67,62,95,79,53,30.17,30.06,5,1,10,0.14
2013-6-23,85,75,67,77,71,65,96,89,65,30.17,30.08,2,0,5,0.02
2013-6-24,88,78,71,79,73,70,96,87,64,30.19,30.08,2,0,5,0.13
2013-6-25,88,75,69,79,72,67,96,90,66,30.14,30.01,2,0,4,0.17
2013-6-26,88,76,71,81,74,70,96,92,75,30.05,29.91,2,0,4,0.08
2013-6-27,89,80,73,80,75,72,96,86,68,29.95,29.75,3,1,7,0.00
2013-6-28,92,81,71,81,74,69,96,81,58,29.79,29.61,3,1,9,0.00
2013-6-29,86,77,72,77,72,69,95,85,71,29.72,29.64,3,1,8,0.03
2013-6-30,88,75,69,79,72,68,96,91,64,29.80,29.68,4,0,8,1.30
2013-7-1,84,75,70,76,72,68,96,90,75,29.93,29.77,2,0,8,0.07
2013-7-2,82,76,72,76,73,70,95,91,81,30.09,29.93,2,0,7,0.30
2013-7-3,77,73,71,74,72,70,96,95,89,30.16,30.07,2,0,4,0.45
2013-7-4,86,75,70,80,73,68,96,94,76,30.17,30.07,3,0,8,1.18
2013-7-5,88,76,70,79,73,69,96,90,68,30.19,30.12,2,0,7,0.36
2013-7-6,87,77,73,79,74,71,96,91,72,30.18,30.07,3,0,5,0.60
2013-7-7,87,77,73,80,75,72,97,93,76,30.15,30.04,4,0,8,0.80
2013-7-8,88,77,71,82,74,70,97,91,73,30.17,30.07,2,0,7,1.16
2013-7-9,91,80,72,82,75,71,97,85,65,30.16,30.03,2,0,4,0.00
2013-7-10,84,76,73,80,75,71,97,95,80,30.10,29.95,3,0,6,1.37
2013-7-11,88,78,72,80,74,71,97,91,69,29.96,29.84,4,0,8,0.07
2013-7-12,87,77,72,78,74,71,97,90,71,29.93,29.83,3,0,6,0.08
2013-7-13,81,75,71,76,73,68,97,91,78,30.04,29.92,5,1,13,0.29
2013-7-14,83,75,71,77,73,70,97,93,78,30.20,30.03,4,1,10,0.28
2013-7-15,89,76,70,78,73,69,97,92,66,30.24,30.17,4,1,11,0.54
2013-7-16,90,78,69,80,74,68,97,87,60,30.27,30.18,2,0,6,0.00
2013-7-17,93,79,70,82,74,69,97,87,58,30.22,30.06,2,0,5,0.01
2013-7-18,88,77,70,80,74,68,97,90,71,30.19,30.03,2,0,4,0.15
2013-7-19,92,80,71,80,74,70,97,85,54,30.10,29.96,3,0,6,0.01
2013-7-20,88,78,74,79,74,72,96,89,68,30.04,29.92,2,0,5,0.00
2013-7-21,88,78,74,81,75,73,96,92,73,30.02,29.90,1,0,6,0.05
2013-7-22,88,77,71,79,74,70,96,89,67,30.00,29.88,2,0,7,0.00
2013-7-23,90,80,73,80,74,71,94,85,63,29.90,29.78,4,1,9,0.00
2013-7-24,91,78,72,81,74,70,96,86,61,29.81,29.72,4,0,6,0.19
2013-7-25,88,78,70,79,73,69,96,87,66,29.96,29.77,2,0,8,0.00
2013-7-26,89,78,71,78,73,70,96,87,60,30.05,29.95,2,0,7,0.01
2013-7-27,86,78,72,80,74,69,96,91,76,30.01,29.86,2,0,5,0.00
2013-7-28,88,78,70,78,73,69,96,86,62,29.98,29.90,2,0,5,0.00
2013-7-29,90,78,71,80,74,70,96,88,65,30.11,29.98,4,0,7,0.00
2013-7-30,90,79,70,79,72,68,96,83,54,30.15,30.07,3,0,7,0.00
2013-7-31,80,74,72,76,73,70,96,95,84,30.11,29.98,1,0,3,0.18
2013-8-1,89,80,72,80,76,71,96,88,70,29.97,29.85,1,0,7,0.10
2013-8-2,89,79,74,80,75,73,96,89,65,30.00,29.89,1,0,3,0.00
2013-8-3,89,83,74,80,76,73,95,82,65,30.01,29.92,1,0,5,0.00
2013-8-4,90,80,73,81,76,71,96,87,64,29.99,29.88,6,0,11,0.00
2013-8-5,89,78,72,76,73,70,96,86,60,30.02,29.94,5,1,10,0.00
2013-8-6,88,81,72,79,76,70,93,84,69,30.01,29.93,2,0,7,0.02
2013-8-7,91,82,72,78,74,71,96,79,56,30.04,29.96,2,0,5,0.00
2013-8-8,92,82,73,78,75,72,96,80,57,30.04,29.95,2,0,4,0.00
2013-8-9,90,79,74,81,76,73,96,89,69,30.08,29.98,2,0,5,0.31
2013-8-10,94,78,73,81,75,71,96,92,62,30.10,30.02,1,0,3,0.02
2013-8-11,93,80,72,80,75,71,95,85,60,30.12,30.02,2,0,6,0.00
2013-8-12,92,79,73,80,75,71,96,87,62,30.06,29.99,3,0,7,0.00
2013-8-16,67,66,65,66,65,64,96,95,94,30.09,30.03,4,2,8,0.80
2013-8-17,70,69,67,68,67,65,96,95,94,30.13,30.08,2,0,7,0.26
2013-8-18,85,73,69,78,71,67,96,92,76,30.18,30.06,2,0,8,1.78
2013-8-19,80,72,69,76,70,68,95,94,87,30.16,30.04,0,0,4,0.25
2013-8-20,82,80,76,78,76,73,94,90,86,30.11,30.07,1,0,3,0.44
2013-8-21,88,76,72,80,73,70,95,91,70,30.21,30.09,0,0,2,0.23
2013-8-22,90,78,70,80,74,68,94,87,62,30.15,29.99,0,0,3,0.00
2013-8-23,90,78,70,80,74,68,95,88,65,30.04,29.93,1,0,4,0.30
2013-8-24,80,73,69,73,70,67,95,90,77,30.22,30.00,2,0,7,0.00
2013-8-25,84,71,62,68,64,60,95,81,47,30.33,30.21,3,1,10,0.00
2013-8-26,84,73,58,68,63,56,94,73,46,30.27,30.12,3,0,9,0.00
2013-8-27,87,75,60,75,69,58,94,82,61,30.15,29.99,0,0,4,0.00
2013-8-28,83,74,65,77,71,63,94,91,78,30.02,29.92,0,0,0,0.00
2013-8-29,92,82,70,80,76,68,94,83,59,29.96,29.85,2,0,6,0.00
2013-8-30,88,78,73,78,74,71,95,87,68,30.00,29.90,1,0,8,0.00
2013-8-31,88,80,72,79,75,70,94,86,71,29.96,29.84,2,0,3,0.04
2013-9-1,90,81,76,81,69,-100,92,77,67,29.91,29.80,0,-23,3,0.01
2013-9-2,89,82,72,80,76,70,94,84,69,29.92,29.80,0,0,4,0.00
2013-9-3,90,82,74,80,76,72,92,81,65,29.95,29.82,1,0,6,0.00
2013-9-4,91,78,69,78,73,67,94,86,56,30.05,29.92,5,0,5,0.00
2013-9-5,91,78,69,78,72,67,94,83,47,30.08,30.00,4,0,5,0.00
2013-9-6,89,75,67,74,69,65,94,81,55,30.11,30.01,2,0,8,0.00
2013-9-7,89,72,63,74,66,61,94,82,51,30.09,29.98,1,0,6,0.00
2013-9-8,89,69,64,74,65,62,94,88,56,29.99,29.90,1,0,3,0.00
2013-9-13,89,80,69,75,71,67,92,74,50,29.83,29.73,2,0,10,0.01
2013-9-14,83,77,67,68,63,57,89,64,54,30.04,29.93,3,1,8,0.00
2013-9-15,84,78,63,76,72,60,91,81,69,30.14,30.03,1,0,3,0.00
2013-9-16,88,83,72,78,75,70,91,78,64,30.10,29.99,1,0,5,0.19
2013-9-17,76,71,65,66,65,62,91,82,69,30.21,30.13,4,1,7,0.00
2013-9-18,66,59,60,62,52,-100,92,86,79,30.23,30.18,4,-38,5,0.00
2013-9-21,80,76,71,74,71,68,91,87,77,29.85,29.67,0,0,1,0.20
2013-9-22,83,72,64,68,64,59,91,78,50,29.82,29.71,3,0,9,0.01
2013-9-23,82,72,56,66,62,54,92,73,50,29.99,29.94,2,0,7,0.00
2013-9-24,78,72,61,69,65,59,91,78,60,30.02,29.87,4,1,9,0.00
2013-9-25,74,69,65,66,64,62,91,85,71,29.89,29.80,4,1,7,0.22
2013-9-26,79,70,60,66,63,58,91,79,58,29.98,29.89,5,1,10,0.01
2013-9-27,80,64,54,63,57,52,92,78,47,30.12,29.98,7,1,12,0.00
2013-9-28,77,63,51,61,55,49,92,77,48,30.20,30.10,6,2,13,0.00
2013-9-29,77,63,53,64,57,51,91,82,55,30.13,29.99,3,1,8,0.00
2013-9-30,75,62,52,63,57,50,92,83,58,30.08,29.98,2,0,6,0.00
2013-10-5,89,79,68,71,68,65,90,71,46,30.12,29.99,4,1,8,0.00
2013-10-7,79,75,68,75,71,65,90,89,84,29.91,29.78,4,0,10,0.20
2013-10-8,69,63,58,66,58,54,90,84,73,30.13,29.90,7,2,15,0.03
2013-10-9,77,63,53,60,54,50,90,74,43,30.17,30.06,5,2,12,0.00
2013-10-10,79,61,48,63,53,45,90,77,50,30.11,29.97,4,1,8,0.00
2013-10-11,83,70,52,66,61,49,89,75,51,30.01,29.90,3,0,6,0.00
2013-10-12,82,66,53,69,60,49,90,82,50,30.05,29.94,2,0,5,0.00
2013-10-13,76,67,62,68,63,58,89,85,73,30.15,30.05,3,0,9,0.00
2013-10-14,70,66,62,65,62,59,89,88,84,30.17,30.10,4,1,9,0.00
2013-10-19,73,67,61,63,59,56,90,76,63,29.95,29.86,2,0,6,0.01
2013-10-20,74,64,53,58,54,50,90,73,50,30.05,29.97,3,1,6,0.00
2013-10-21,72,59,49,62,53,46,91,82,62,30.12,29.99,3,0,5,0.00
2013-10-22,68,62,58,63,59,55,89,88,80,30.00,29.83,1,0,2,0.00
2013-10-23,70,60,48,60,49,37,90,69,30,30.06,29.78,6,1,18,0.01
2013-10-24,68,51,37,49,41,34,90,72,36,30.20,30.06,2,0,8,0.00
2013-10-25,60,49,37,44,40,34,90,74,45,30.35,30.16,4,1,9,0.00
2013-10-26,64,45,30,45,36,27,90,74,37,30.34,30.15,4,0,7,0.00
2013-10-27,74,54,38,58,47,35,89,79,54,30.15,30.06,3,0,9,0.00
2013-10-28,72,60,52,62,55,49,89,83,60,30.26,30.12,2,0,4,0.00
2013-10-29,75,59,49,61,53,46,91,82,56,30.33,30.23,2,0,6,0.00
2013-10-30,80,62,50,64,55,47,90,80,50,30.31,30.15,2,0,6,0.00
2013-10-31,62,55,52,59,52,48,91,89,88,30.18,30.13,1,0,1,0.00
2013-11-1,73,66,63,69,62,60,89,88,82,29.82,29.72,3,0,6,1.00
2013-11-2,72,60,50,60,53,47,90,78,43,29.93,29.75,4,0,8,0.01
2013-11-3,67,56,42,50,44,39,89,68,42,30.31,30.16,5,1,10,0.00
2013-11-4,64,48,36,44,38,33,90,71,34,30.46,30.31,6,2,13,0.00
2013-11-5,68,48,38,53,41,35,89,81,57,30.48,30.35,7,2,13,0.00
2013-11-6,76,64,53,63,57,50,88,78,61,30.30,30.10,3,1,6,0.00
2013-11-7,76,59,52,65,52,36,91,77,51,30.13,29.94,4,0,9,0.00
2013-11-8,62,47,37,43,37,34,88,70,35,30.32,30.13,6,1,13,0.00
2013-11-9,62,47,33,45,38,30,90,74,36,30.37,30.23,3,0,5,0.00
2013-11-10,62,50,46,48,44,42,88,82,53,30.25,30.21,2,0,5,0.00
2013-11-11,59,46,39,48,41,36,88,82,63,30.19,30.17,0,0,1,0.00
2013-11-12,73,51,35,49,39,31,89,66,35,30.40,30.02,9,2,18,0.00
2013-11-13,51,42,27,30,22,17,86,49,27,30.57,30.44,7,2,13,0.00
2013-11-14,57,40,26,34,30,22,88,72,27,30.52,30.33,2,0,3,0.00
2013-11-15,63,47,33,54,41,30,88,79,69,30.33,30.14,2,0,5,0.00
2013-11-16,64,59,56,58,55,52,88,86,81,30.18,30.13,0,0,0,0.00
2013-11-17,70,62,51,64,58,47,88,87,81,30.17,29.93,2,0,4,0.01
2013-11-18,83,69,49,68,56,39,89,67,33,29.97,29.83,4,1,13,0.01
2013-11-19,63,48,36,42,35,28,89,67,28,30.20,29.97,6,1,12,0.00
2013-11-20,55,49,39,45,37,32,83,64,52,30.35,30.17,7,2,16,0.00
2013-11-21,56,53,50,50,46,42,88,78,70,30.41,30.33,5,2,10,0.07
2013-11-22,67,59,52,62,55,48,89,87,83,30.34,30.14,3,0,7,0.00
2013-11-23,65,60,52,60,54,31,89,81,44,30.17,30.03,5,0,10,0.04
2013-11-24,52,40,28,35,26,18,86,60,32,30.50,30.17,8,2,15,0.00
2013-11-25,52,40,27,30,22,12,87,51,31,30.52,30.25,5,2,12,0.00
2013-11-26,61,46,42,58,41,30,90,82,54,30.25,29.61,4,1,9,0.79
2013-11-27,48,43,29,45,38,26,90,82,63,30.25,29.55,4,1,14,0.11
2013-11-28,48,32,23,34,26,20,90,80,42,30.49,30.25,3,0,6,0.00
2013-11-29,59,38,25,40,30,22,90,76,34,30.54,30.44,3,0,6,0.00
2013-11-30,52,40,27,41,32,24,90,76,53,30.58,30.34,5,1,10,0.01
2013-12-1,58,47,40,48,41,36,88,79,61,30.34,30.01,3,0,6,0.00
2013-12-2,63,50,41,50,44,38,89,79,51,30.01,29.81,4,0,9,0.00
2013-12-3,63,55,49,58,51,45,89,87,84,29.94,29.85,2,0,5,0.67
2013-12-4,70,61,55,64,57,51,90,87,82,30.06,29.92,1,0,4,0.21
2013-12-5,70,64,57,66,60,53,90,88,87,30.11,30.03,2,0,4,0.05
2013-12-6,79,67,56,69,62,52,90,83,68,30.10,30.00,4,1,8,0.00
2013-12-7,68,61,48,65,57,45,89,88,86,30.34,30.02,6,2,13,0.46
2013-12-8,48,45,42,45,42,39,90,89,89,30.35,30.24,5,2,13,0.15
2013-12-9,54,47,42,50,44,38,89,88,87,30.24,30.02,3,0,5,0.19
2013-12-10,60,51,34,57,46,31,91,84,59,30.33,29.93,5,1,10,0.05
2013-12-11,56,40,28,42,33,26,90,79,50,30.44,30.31,3,0,6,0.00
2013-12-12,54,38,29,37,30,26,89,76,38,30.42,30.30,3,0,10,0.01
2013-12-13,60,40,26,40,31,23,90,75,32,30.38,30.20,2,0,6,0.00
2013-12-14,60,51,43,56,47,40,89,87,84,30.22,29.81,3,0,7,1.03
2013-12-15,55,48,34,50,42,31,89,81,61,30.16,29.78,4,1,9,0.05
2013-12-16,62,41,28,42,33,25,90,77,36,30.23,30.14,3,0,8,0.00
2013-12-17,64,46,31,42,35,28,89,70,36,30.23,30.06,4,1,12,0.01
2013-12-18,57,43,31,39,31,23,89,69,29,30.31,30.10,4,1,8,0.00
2013-12-19,65,42,27,43,33,24,89,73,28,30.36,30.22,3,0,8,0.00
2013-12-20,69,50,35,58,44,32,89,83,65,30.26,30.13,4,0,7,0.00
2013-12-21,80,61,46,66,55,42,88,80,58,30.15,29.98,4,1,9,0.00
2013-12-22,78,69,65,69,65,61,88,85,74,30.06,29.97,3,1,7,0.37
2013-12-23,69,60,47,65,56,43,89,88,85,30.17,29.99,3,0,7,0.88
2013-12-24,54,42,31,43,34,27,90,76,38,30.39,30.16,4,1,9,0.00
2013-12-25,46,37,26,30,26,21,90,64,44,30.52,30.36,5,2,9,0.00
2013-12-26,53,43,34,41,34,27,89,72,54,30.37,30.24,2,0,6,0.01
2013-12-27,55,39,29,40,32,26,89,78,44,30.46,30.32,3,0,5,0.00
2013-12-28,52,40,28,44,35,25,89,83,54,30.41,30.05,3,0,7,0.50
2013-12-29,59,50,43,53,46,40,89,87,76,30.06,29.78,4,1,10,0.98
2013-12-30,58,46,35,48,42,32,90,84,67,30.18,29.98,2,0,6,0.00
2013-12-31,55,47,37,46,40,32,88,77,43,30.36,30.16,2,1,8,0.00
2014-1-1,50,43,35,45,39,32,89,86,76,30.37,30.15,1,0,3,0.01
2014-1-2,53,47,34,50,43,28,89,86,74,30.15,29.71,6,1,18,0.26